Currie, Minnesota
Current Conditions -  °F | °C
As of 2:16 AM on Saturday 20 Dec 2014 (Local Time) from KDVP Reporting Station
Haze Haze  
Wind Chill: 30°   Ceiling: 800
Heat Index: 30°   Visibility: 5mi
Dew Point: 30°   Wind: 3mph
Humidity: 99%   Direction: 180°S
Pressure: 30.07"   Gusts: NA
Location:  44.07°N, 95.67°W
Report Text: KDVP 200816Z AUTO 18003KT 5SM BR OVC008 M01/M01 A3007 RMK AO2 T10111013
Loading
Personal Weather Stations






























Interactive Weather Map New forecast layout! Learn more

10-Day Weather Forecast

Advertisements
Track Severe Weather on mobile